Accueil
METAR-TAF:

METAR-TAF

Aéroports :

Aéroport de Paris-Beauvais

Beauvais, France

latitude: 49-28N, longitude: 002-07E, altitude: 109 m

Observation

Le bulletin a été fait il y a 22 minutes, à 12:00 UTC
Vent 7 kt de direction variable
Température 25°C
Humidité 41%
Pression 1018 hPa
Visibilité 10 km ou plus
pas de nuages en-dessous de 1500 mètres et pas de cumulonimbus.

METAR: LFOB 181200Z AUTO VRB07KT CAVOK 25/11 Q1018

Heure: 14:22 (12:22 UTC)

Prévision

Le bulletin a été fait il y a 1 heure et 22 minutes, à 11:00 UTC
Prévision valable du 18 à 12 UTC au 19 à 12 UTC
Vent 5 kt de nord-est
Visibilité 10 km ou plus
pas de nuages en-dessous de 1500 mètres et pas de cumulonimbus.

TAF: LFOB 181100Z 1812/1912 04005KT CAVOK

Observations et prévisions météorologiques de plus de 4000 aéroports (messages METAR et TAF).

Les stations disponibles sont représentées par des disques jaunes et rouges sur la carte.

Passer la souris dessus pour voir le nom de la station.

Cliquer dessus pour voir les observations et prévisions météorologiques.

Pour changer de carte: cliquez sur les boutons verts avec une croix noire pour zoomer, sur le bouton vert avec un tiret pour effectuer un zoom arrière, ou sur les flèches vertes pour les cartes adjacentes.


METAR-TAF: